Time;durP1;ratioP1;P1;durP2;ratioP2;P2;SDS_P1;SDS_P2;PMS_P1;PMS_P2;Temp;Humidity;BMP_temperature;BMP_pressure;BME280_temperature;BME280_humidity;BME280_pressure;Samples;Min_cycle;Max_cycle;Signal;HPM_P1;HPM_P2
2023/11/06 00:01:37;;;;;;;7.38;0.30;;;9.40;99.90;;;;;;4957800;28;20027;-76
2023/11/06 00:04:02;;;;;;;9.75;0.40;;;9.40;99.90;;;;;;4974881;28;20027;-76
2023/11/06 00:06:28;;;;;;;10.00;1.05;;;9.40;99.90;;;;;;4974741;28;20027;-76
2023/11/06 00:08:54;;;;;;;4.65;0.90;;;9.40;99.90;;;;;;4957126;28;20375;-76
2023/11/06 00:11:19;;;;;;;5.22;0.10;;;9.40;99.90;;;;;;4957502;28;20011;-76
2023/11/06 00:13:45;;;;;;;5.00;0.52;;;9.40;99.90;;;;;;4974718;28;20034;-76
2023/11/06 00:16:11;;;;;;;7.63;0.30;;;9.40;99.90;;;;;;4957513;28;20038;-76
2023/11/06 00:18:37;;;;;;;3.03;0.20;;;9.40;99.90;;;;;;4957247;28;20398;-76
2023/11/06 00:21:05;;;;;;;5.15;0.10;;;9.40;99.90;;;;;;4957524;28;20018;-76
2023/11/06 00:23:31;;;;;;;6.30;0.10;;;9.30;99.90;;;;;;4975361;28;20023;-76
2023/11/06 00:25:57;;;;;;;6.20;0.25;;;9.30;99.90;;;;;;4974568;28;20391;-76
2023/11/06 00:28:23;;;;;;;3.30;0.15;;;9.30;99.90;;;;;;4974583;28;20022;-76
2023/11/06 00:30:48;;;;;;;5.85;0.43;;;9.30;99.90;;;;;;4957339;28;20030;-76
2023/11/06 00:33:14;;;;;;;4.15;0.52;;;9.30;99.90;;;;;;4974766;28;20034;-76
2023/11/06 00:35:39;;;;;;;6.65;0.73;;;9.10;99.90;;;;;;4957382;28;20023;-76
2023/11/06 00:38:05;;;;;;;3.22;0.13;;;9.30;99.90;;;;;;4973193;28;20118;-76
2023/11/06 00:40:30;;;;;;;1.88;0.10;;;9.20;99.90;;;;;;4957651;28;20031;-76
2023/11/06 00:42:57;;;;;;;1.88;0.10;;;9.30;99.90;;;;;;4974531;28;20031;-76
2023/11/06 00:45:23;;;;;;;5.68;0.10;;;9.30;99.90;;;;;;4957150;28;20019;-76
2023/11/06 00:47:48;;;;;;;7.10;0.15;;;9.30;99.90;;;;;;4974634;28;20447;-76
2023/11/06 00:50:14;;;;;;;2.97;0.13;;;10.90;99.90;;;;;;4957442;28;20194;-76
2023/11/06 00:52:39;;;;;;;6.55;0.10;;;9.30;99.90;;;;;;4975390;28;20019;-76
2023/11/06 00:55:05;;;;;;;2.50;0.40;;;9.30;99.90;;;;;;4957348;28;20041;-76
2023/11/06 00:57:31;;;;;;;3.85;0.10;;;9.30;99.90;;;;;;4974873;28;20027;-76
2023/11/06 00:59:56;;;;;;;2.38;0.00;;;10.20;99.90;;;;;;4975071;28;20085;-76
2023/11/06 01:02:22;;;;;;;5.32;0.00;;;9.40;99.90;;;;;;4974513;28;20088;-75
2023/11/06 01:04:48;;;;;;;4.95;0.10;;;9.40;99.90;;;;;;4974854;28;20019;-77
2023/11/06 01:07:14;;;;;;;1.65;0.00;;;9.40;99.90;;;;;;4957303;28;20015;-76
2023/11/06 01:09:40;;;;;;;4.68;0.20;;;9.40;99.90;;;;;;4957659;28;20023;-76
2023/11/06 01:12:06;;;;;;;2.40;0.40;;;9.40;99.90;;;;;;4975019;28;20027;-77
2023/11/06 01:14:32;;;;;;;3.63;0.30;;;9.40;99.90;;;;;;4974925;28;20098;-76
2023/11/06 01:16:57;;;;;;;3.83;0.20;;;9.40;99.90;;;;;;4975188;28;20034;-76
2023/11/06 01:19:23;;;;;;;4.50;0.10;;;9.40;99.90;;;;;;4974861;28;20027;-77
2023/11/06 01:21:48;;;;;;;3.38;0.30;;;9.40;99.90;;;;;;4959664;28;20023;-76
2023/11/06 01:24:14;;;;;;;4.15;0.55;;;9.40;99.90;;;;;;4978340;28;20114;-77
2023/11/06 01:26:42;;;;;;;2.97;0.00;;;9.40;99.90;;;;;;4978025;28;20026;-77
2023/11/06 01:29:11;;;;;;;4.77;0.17;;;9.40;99.90;;;;;;4978096;28;20063;-76
2023/11/06 01:31:36;;;;;;;;;;;9.40;99.90;;;;;;4979112;28;20270;-77
2023/11/06 01:34:02;;;;;;;2.85;0.00;;;9.40;99.90;;;;;;4978384;28;19913;-77
2023/11/06 01:36:28;;;;;;;4.85;0.40;;;9.40;99.90;;;;;;4960608;28;20038;-77
2023/11/06 01:38:54;;;;;;;1.17;0.13;;;9.40;99.90;;;;;;4961306;28;20061;-77
2023/11/06 01:41:19;;;;;;;3.65;0.22;;;9.50;99.90;;;;;;4960583;28;20030;-75
2023/11/06 01:43:45;;;;;;;4.47;0.10;;;10.10;99.90;;;;;;4960187;28;20035;-76
2023/11/06 01:46:13;;;;;;;2.85;0.20;;;9.30;99.90;;;;;;4978277;28;20034;-75
2023/11/06 01:48:41;;;;;;;2.50;0.10;;;9.40;99.90;;;;;;4977683;28;20034;-75
2023/11/06 01:51:07;;;;;;;2.83;0.52;;;9.30;99.90;;;;;;4977648;28;20046;-76
2023/11/06 01:53:34;;;;;;;2.60;0.15;;;9.90;99.90;;;;;;4960396;28;20027;-76
2023/11/06 01:56:00;;;;;;;4.65;0.25;;;9.30;99.90;;;;;;4977717;28;20023;-76
2023/11/06 01:58:28;;;;;;;1.75;0.30;;;9.20;99.90;;;;;;4976326;28;20027;-76
2023/11/06 02:00:54;;;;;;;4.93;0.88;;;9.20;99.90;;;;;;4960393;28;20390;-76
2023/11/06 02:03:21;;;;;;;5.22;0.38;;;9.20;99.90;;;;;;4960206;28;20510;-76
2023/11/06 02:05:47;;;;;;;5.00;0.45;;;9.20;99.90;;;;;;4977595;28;20147;-76
2023/11/06 02:08:15;;;;;;;3.42;0.20;;;9.10;99.90;;;;;;4975881;28;20500;-76
2023/11/06 02:10:42;;;;;;;2.10;0.03;;;9.20;99.90;;;;;;4976985;28;20470;-76
2023/11/06 02:13:08;;;;;;;2.40;0.15;;;9.10;99.90;;;;;;4976677;28;20126;-76
2023/11/06 02:15:34;;;;;;;1.00;0.35;;;9.10;99.90;;;;;;4976819;28;20050;-76
2023/11/06 02:17:59;;;;;;;4.70;0.30;;;9.10;99.90;;;;;;4959390;28;20054;-76
2023/11/06 02:20:25;;;;;;;5.70;0.63;;;9.10;99.90;;;;;;4976898;28;20023;-76
2023/11/06 02:22:57;;;;;;;3.65;0.55;;;9.20;99.90;;;;;;4976620;28;20022;-76
2023/11/06 02:25:23;;;;;;;2.65;0.25;;;9.20;99.90;;;;;;4959349;28;20394;-76
2023/11/06 02:27:48;;;;;;;4.72;1.20;;;9.20;99.90;;;;;;4976501;28;20022;-76
2023/11/06 02:30:14;;;;;;;1.75;0.20;;;9.20;99.90;;;;;;4976769;28;20119;-76
2023/11/06 02:32:39;;;;;;;3.70;0.82;;;9.20;99.90;;;;;;4958531;28;20537;-76
2023/11/06 02:35:07;;;;;;;4.05;0.35;;;9.30;99.90;;;;;;4959036;28;20046;-76
2023/11/06 02:37:32;;;;;;;4.30;0.85;;;9.30;99.90;;;;;;4975085;28;20046;-76
2023/11/06 02:40:01;;;;;;;6.32;1.02;;;9.30;99.90;;;;;;4976277;28;20019;-76
2023/11/06 02:42:26;;;;;;;5.32;0.70;;;9.20;99.90;;;;;;4958876;28;20487;-76
2023/11/06 02:44:55;;;;;;;3.00;0.85;;;9.50;99.90;;;;;;4974795;28;20054;-76
2023/11/06 02:47:20;;;;;;;5.22;0.63;;;9.30;99.90;;;;;;4976276;28;20503;-76
2023/11/06 02:49:46;;;;;;;2.22;0.40;;;9.30;99.90;;;;;;4958839;28;20015;-76
2023/11/06 02:52:12;;;;;;;4.78;0.75;;;9.30;99.90;;;;;;4976134;28;20543;-76
2023/11/06 02:54:37;;;;;;;6.90;0.68;;;9.20;99.90;;;;;;4976090;28;20026;-76
2023/11/06 02:57:04;;;;;;;4.07;0.43;;;9.20;99.90;;;;;;4958518;28;20023;-76
2023/11/06 02:59:30;;;;;;;5.07;1.23;;;9.10;99.90;;;;;;4958584;28;20050;-76
2023/11/06 03:01:56;;;;;;;4.60;0.57;;;9.10;99.90;;;;;;4958671;28;20035;-76
2023/11/06 03:04:22;;;;;;;6.10;0.43;;;9.10;99.90;;;;;;4975748;28;20023;-76
2023/11/06 03:06:47;;;;;;;5.25;0.70;;;9.10;99.90;;;;;;4975771;28;20023;-76
2023/11/06 03:09:13;;;;;;;8.52;1.10;;;9.10;99.90;;;;;;4975857;28;20030;-76
2023/11/06 03:11:40;;;;;;;4.72;0.35;;;9.10;99.90;;;;;;4975752;28;20074;-76
2023/11/06 03:14:05;;;;;;;8.60;0.85;;;9.20;99.90;;;;;;4976303;28;20035;-76
2023/11/06 03:16:35;;;;;;;13.63;0.55;;;9.20;99.90;;;;;;4959441;28;20073;-76
2023/11/06 03:19:02;;;;;;;2.60;0.28;;;9.20;99.90;;;;;;4958291;28;20027;-76
2023/11/06 03:21:28;;;;;;;3.83;0.43;;;9.20;99.90;;;;;;4958166;28;20117;-76
2023/11/06 03:23:54;;;;;;;5.05;0.25;;;9.20;99.90;;;;;;4975467;28;20106;-76
2023/11/06 03:26:21;;;;;;;5.03;0.45;;;9.20;99.90;;;;;;4975444;28;20081;-76
2023/11/06 03:28:46;;;;;;;0.80;0.20;;;9.20;99.90;;;;;;4958456;28;20011;-76
2023/11/06 03:31:12;;;;;;;5.13;0.43;;;9.20;99.90;;;;;;4975539;28;20027;-76
2023/11/06 03:33:37;;;;;;;3.20;0.20;;;9.20;99.90;;;;;;4975864;28;20023;-76
2023/11/06 03:36:03;;;;;;;2.60;0.38;;;9.10;99.90;;;;;;4975509;28;20102;-76
2023/11/06 03:38:29;;;;;;;2.45;0.20;;;9.10;99.90;;;;;;4958167;28;20026;-76
2023/11/06 03:40:55;;;;;;;2.42;0.10;;;9.10;99.90;;;;;;4975397;28;20490;-76
2023/11/06 03:43:21;;;;;;;8.55;0.50;;;9.80;99.90;;;;;;4974366;28;20106;-76
2023/11/06 03:45:47;;;;;;;3.70;0.45;;;9.10;99.90;;;;;;4975043;28;20077;-76
2023/11/06 03:48:12;;;;;;;3.10;0.40;;;9.00;99.90;;;;;;4957829;28;20022;-76
2023/11/06 03:50:42;;;;;;;3.03;0.00;;;9.10;99.90;;;;;;4975158;28;20031;-76
2023/11/06 03:53:09;;;;;;;1.70;0.43;;;9.30;99.90;;;;;;4973880;28;20030;-76
2023/11/06 03:55:35;;;;;;;6.68;0.30;;;8.90;99.90;;;;;;4957746;28;20031;-76
2023/11/06 03:58:01;;;;;;;9.20;0.52;;;8.90;99.90;;;;;;4974792;28;20033;-76
2023/11/06 04:00:26;;;;;;;3.80;0.75;;;8.80;99.90;;;;;;4975469;28;20533;-76
2023/11/06 04:02:52;;;;;;;3.40;0.20;;;8.90;99.90;;;;;;4974894;28;20039;-76
2023/11/06 04:05:18;;;;;;;3.60;0.60;;;8.90;99.90;;;;;;4975018;28;20489;-76
2023/11/06 04:07:43;;;;;;;2.35;0.52;;;8.90;99.90;;;;;;4974826;28;20026;-76
2023/11/06 04:10:10;;;;;;;5.15;0.28;;;8.90;99.90;;;;;;4974821;28;20170;-76
2023/11/06 04:12:37;;;;;;;6.78;0.10;;;8.80;99.90;;;;;;4957452;28;20018;-76
2023/11/06 04:15:05;;;;;;;6.50;0.20;;;8.80;99.90;;;;;;4974723;28;20073;-76
2023/11/06 04:17:31;;;;;;;2.47;0.13;;;8.70;99.90;;;;;;4957376;28;20019;-76
2023/11/06 04:19:57;;;;;;;3.63;0.08;;;8.70;99.90;;;;;;4974734;28;20019;-76
2023/11/06 04:22:22;;;;;;;5.68;0.20;;;8.80;99.90;;;;;;4973488;28;20113;-76
2023/11/06 04:24:48;;;;;;;3.75;0.57;;;8.80;99.90;;;;;;4975048;28;20030;-76
2023/11/06 04:27:13;;;;;;;5.88;0.10;;;8.70;99.90;;;;;;4974940;28;20090;-76
2023/11/06 04:29:39;;;;;;;2.15;0.20;;;8.70;99.90;;;;;;4974920;28;20019;-76
2023/11/06 04:32:05;;;;;;;7.78;0.95;;;8.70;99.90;;;;;;4957286;28;20033;-76
2023/11/06 04:34:31;;;;;;;3.08;0.00;;;8.70;99.90;;;;;;4974663;28;20021;-76
2023/11/06 04:36:58;;;;;;;3.17;0.38;;;8.70;99.90;;;;;;4974582;28;20031;-76
2023/11/06 04:39:24;;;;;;;0.20;0.00;;;8.60;99.90;;;;;;4957199;28;20019;-76
2023/11/06 04:41:49;;;;;;;5.57;0.75;;;8.60;99.90;;;;;;4957286;28;20037;-76
2023/11/06 04:44:15;;;;;;;0.20;0.00;;;8.60;99.90;;;;;;4957246;28;20118;-76
2023/11/06 04:46:41;;;;;;;3.08;0.10;;;8.60;99.90;;;;;;4974935;28;20054;-76
2023/11/06 04:49:07;;;;;;;2.78;0.00;;;8.60;99.90;;;;;;4974785;28;20015;-76
2023/11/06 04:51:32;;;;;;;4.18;0.63;;;8.70;99.90;;;;;;4973501;28;20030;-76
2023/11/06 04:53:58;;;;;;;2.28;0.20;;;8.60;99.90;;;;;;4957227;28;20019;-76
2023/11/06 04:56:24;;;;;;;7.60;0.05;;;8.60;99.90;;;;;;4977885;28;20394;-75
2023/11/06 04:58:49;;;;;;;2.25;0.05;;;9.50;99.90;;;;;;4978588;28;20037;-76
2023/11/06 05:01:18;;;;;;;5.78;0.00;;;8.60;99.90;;;;;;4979056;28;20039;-76
2023/11/06 05:03:44;;;;;;;;;;;8.60;99.90;;;;;;4978524;28;20030;-76
2023/11/06 05:06:09;;;;;;;3.20;0.55;;;8.60;99.90;;;;;;4978214;28;19912;-76
2023/11/06 05:08:38;;;;;;;1.83;0.10;;;8.60;99.90;;;;;;4978136;28;20035;-76
2023/11/06 05:11:05;;;;;;;8.30;0.10;;;8.50;99.90;;;;;;4977884;28;20031;-76
2023/11/06 05:13:31;;;;;;;4.60;0.00;;;8.60;99.90;;;;;;4976633;28;20139;-76
2023/11/06 05:15:57;;;;;;;4.25;0.00;;;8.60;99.90;;;;;;4977889;28;20046;-76
2023/11/06 05:18:23;;;;;;;0.22;0.00;;;8.50;99.90;;;;;;4960480;28;20058;-76
2023/11/06 05:20:48;;;;;;;2.75;0.00;;;8.60;99.90;;;;;;4977962;28;20022;-76
2023/11/06 05:23:14;;;;;;;2.15;0.00;;;8.60;99.90;;;;;;4977663;28;20032;-76
2023/11/06 05:25:39;;;;;;;3.42;0.45;;;8.60;99.90;;;;;;4960501;28;20018;-76
2023/11/06 05:28:05;;;;;;;4.43;0.10;;;8.60;99.90;;;;;;4977669;28;20026;-76
2023/11/06 05:30:31;;;;;;;2.00;0.35;;;8.60;99.90;;;;;;4978082;28;20030;-76
2023/11/06 05:32:57;;;;;;;3.40;0.00;;;8.60;99.90;;;;;;4977703;28;20019;-76
2023/11/06 05:35:23;;;;;;;5.88;1.02;;;8.60;99.90;;;;;;4977636;28;20055;-76
2023/11/06 05:37:49;;;;;;;3.38;0.05;;;8.60;99.90;;;;;;4960151;28;20105;-76
2023/11/06 05:40:16;;;;;;;3.58;0.00;;;10.60;99.90;;;;;;4960001;28;20019;-76
2023/11/06 05:42:42;;;;;;;3.13;0.10;;;8.60;99.90;;;;;;4960054;28;20499;-76
2023/11/06 05:45:08;;;;;;;2.85;0.05;;;8.60;99.90;;;;;;4960147;28;20406;-76
2023/11/06 05:47:34;;;;;;;3.53;0.00;;;8.60;99.90;;;;;;4977382;28;20023;-76
2023/11/06 05:50:00;;;;;;;2.72;0.00;;;8.60;99.90;;;;;;4977597;28;20097;-76
2023/11/06 05:52:26;;;;;;;1.05;0.30;;;8.70;99.90;;;;;;4977604;28;20383;-76
2023/11/06 05:54:52;;;;;;;4.30;0.10;;;;;;;;;;4959831;28;20030;-76
2023/11/06 05:57:18;;;;;;;0.88;0.10;;;8.70;99.90;;;;;;4960025;28;20027;-76
2023/11/06 05:59:43;;;;;;;2.30;0.10;;;8.70;99.90;;;;;;4977249;28;20034;-77
2023/11/06 06:02:09;;;;;;;3.45;0.68;;;8.70;99.90;;;;;;4959725;28;20030;-77
2023/11/06 06:04:35;;;;;;;3.08;0.32;;;8.60;99.90;;;;;;4959715;28;20088;-77
2023/11/06 06:07:01;;;;;;;8.73;0.25;;;8.70;99.90;;;;;;4958667;28;20479;-78
2023/11/06 06:09:27;;;;;;;2.45;0.10;;;8.70;99.90;;;;;;4977338;28;20030;-77
2023/11/06 06:11:52;;;;;;;8.05;0.20;;;8.70;99.90;;;;;;4959354;28;20030;-78
2023/11/06 06:14:18;;;;;;;4.82;0.25;;;8.80;99.90;;;;;;4976750;28;20034;-77
2023/11/06 06:16:48;;;;;;;7.15;0.10;;;8.80;99.90;;;;;;4959526;28;20037;-78
2023/11/06 06:19:14;;;;;;;5.18;0.10;;;8.80;99.90;;;;;;4977271;28;20030;-78
2023/11/06 06:21:40;;;;;;;3.10;0.20;;;8.80;99.90;;;;;;4976738;28;20368;-78
2023/11/06 06:24:08;;;;;;;3.33;0.45;;;8.80;99.90;;;;;;4977373;28;20027;-78
2023/11/06 06:26:34;;;;;;;5.68;0.65;;;8.80;99.90;;;;;;4977158;28;20344;-77
2023/11/06 06:29:00;;;;;;;4.78;0.13;;;8.70;99.90;;;;;;4976562;28;20074;-78
2023/11/06 06:31:25;;;;;;;8.05;0.40;;;8.80;99.90;;;;;;4976662;28;20030;-78
2023/11/06 06:33:51;;;;;;;4.35;0.25;;;8.80;99.90;;;;;;4976620;28;20027;-77
2023/11/06 06:36:17;;;;;;;5.57;0.25;;;8.80;99.90;;;;;;4976393;28;20038;-78
2023/11/06 06:38:42;;;;;;;3.90;0.38;;;8.90;99.90;;;;;;4958981;28;20023;-76
2023/11/06 06:41:08;;;;;;;6.53;0.32;;;11.60;99.90;;;;;;4958991;28;20031;-77
2023/11/06 06:43:35;;;;;;;6.72;0.10;;;8.90;99.90;;;;;;4958857;28;20061;-77
2023/11/06 06:46:01;;;;;;;4.57;0.55;;;8.80;99.90;;;;;;4976340;28;20027;-77
2023/11/06 06:48:27;;;;;;;4.85;0.22;;;8.80;99.90;;;;;;4976083;28;20030;-77
2023/11/06 06:50:52;;;;;;;6.82;0.40;;;8.80;99.90;;;;;;4958851;28;20394;-77
2023/11/06 06:53:18;;;;;;;3.70;0.47;;;8.90;99.90;;;;;;4976077;28;20546;-77
2023/11/06 06:55:43;;;;;;;3.65;0.13;;;8.80;99.90;;;;;;4958804;28;20066;-77
2023/11/06 06:58:09;;;;;;;7.30;0.47;;;9.80;99.90;;;;;;4975990;28;20110;-77
2023/11/06 07:00:35;;;;;;;6.88;0.70;;;8.80;99.90;;;;;;4958757;28;20122;-76
2023/11/06 07:03:05;;;;;;;6.90;0.82;;;8.80;99.90;;;;;;4976036;28;20487;-77
2023/11/06 07:05:33;;;;;;;4.45;0.20;;;8.80;99.90;;;;;;4958790;28;20027;-77
2023/11/06 07:07:59;;;;;;;6.03;0.85;;;8.80;99.90;;;;;;4975972;28;20546;-77
2023/11/06 07:10:26;;;;;;;6.22;0.10;;;8.80;99.90;;;;;;4975926;28;20097;-77
2023/11/06 07:12:52;;;;;;;7.18;0.43;;;8.80;99.90;;;;;;4975731;28;20038;-77
2023/11/06 07:15:18;;;;;;;7.07;0.05;;;8.90;99.90;;;;;;4975938;28;20102;-77
2023/11/06 07:17:43;;;;;;;5.43;0.10;;;8.80;99.90;;;;;;4975671;28;20031;-77
2023/11/06 07:20:15;;;;;;;6.47;0.10;;;8.80;99.90;;;;;;4975801;28;20121;-77
2023/11/06 07:22:41;;;;;;;4.60;0.75;;;8.90;99.90;;;;;;4958265;28;20406;-77
2023/11/06 07:25:07;;;;;;;5.53;0.47;;;8.90;99.90;;;;;;4958189;28;20066;-77
2023/11/06 07:27:33;;;;;;;4.30;0.00;;;8.90;99.90;;;;;;4958011;28;20023;-77
2023/11/06 07:29:59;;;;;;;4.55;0.13;;;8.90;99.90;;;;;;4975749;28;20025;-77
2023/11/06 07:32:24;;;;;;;3.35;0.10;;;8.90;99.90;;;;;;4975464;28;20027;-77
2023/11/06 07:34:50;;;;;;;1.95;0.00;;;9.00;99.90;;;;;;4973953;28;20023;-77
2023/11/06 07:37:16;;;;;;;4.25;0.00;;;9.00;99.90;;;;;;4975689;28;20031;-77
2023/11/06 07:39:42;;;;;;;3.92;0.38;;;9.10;99.90;;;;;;4975298;28;20027;-77
2023/11/06 07:42:11;;;;;;;4.00;0.05;;;9.00;99.90;;;;;;4958102;28;20034;-77
2023/11/06 07:44:38;;;;;;;6.05;0.03;;;9.10;99.90;;;;;;4974997;28;20502;-76
2023/11/06 07:47:05;;;;;;;3.15;0.28;;;9.20;99.90;;;;;;4957730;28;20022;-77
2023/11/06 07:49:31;;;;;;;5.15;0.10;;;9.20;99.90;;;;;;4975021;28;20023;-76
2023/11/06 07:51:57;;;;;;;3.83;0.25;;;9.30;99.90;;;;;;4975165;28;20051;-77
2023/11/06 07:54:22;;;;;;;2.47;0.13;;;9.40;99.90;;;;;;4973933;28;20026;-77
2023/11/06 07:56:48;;;;;;;6.28;0.35;;;9.40;99.90;;;;;;4975080;28;20094;-76
2023/11/06 07:59:14;;;;;;;3.13;0.00;;;9.30;99.90;;;;;;4957678;28;20505;-77
2023/11/06 08:01:40;;;;;;;7.07;0.10;;;9.40;99.90;;;;;;4975019;28;20022;-77
2023/11/06 08:04:07;;;;;;;3.67;0.45;;;9.40;99.90;;;;;;4974815;28;20027;-75
2023/11/06 08:06:33;;;;;;;2.30;0.30;;;9.50;99.90;;;;;;4974866;28;20093;-76
2023/11/06 08:08:59;;;;;;;3.35;0.30;;;9.40;99.90;;;;;;4974897;28;20015;-76
2023/11/06 08:11:25;;;;;;;1.65;0.00;;;;;;;;;;4974769;28;20054;-76
2023/11/06 08:13:51;;;;;;;4.32;0.40;;;9.50;99.90;;;;;;4974612;28;20038;-76
2023/11/06 08:16:17;;;;;;;1.15;0.00;;;9.60;99.90;;;;;;4957404;28;20030;-76
2023/11/06 08:18:42;;;;;;;9.95;0.45;;;9.70;99.90;;;;;;4957416;28;20029;-76
2023/11/06 08:21:09;;;;;;;2.90;0.20;;;9.70;99.90;;;;;;4974781;28;20095;-76
2023/11/06 08:23:35;;;;;;;3.88;0.63;;;9.70;99.90;;;;;;4975164;28;20031;-77
2023/11/06 08:26:01;;;;;;;1.80;0.00;;;9.70;99.90;;;;;;4957265;28;20386;-77
2023/11/06 08:28:26;;;;;;;8.82;0.00;;;9.80;99.90;;;;;;4957242;28;20015;-76
2023/11/06 08:30:52;;;;;;;4.13;0.00;;;9.90;99.90;;;;;;4962228;28;20026;-77
2023/11/06 08:33:18;;;;;;;3.15;0.63;;;10.00;99.90;;;;;;4980898;28;20483;-77
2023/11/06 08:35:45;;;;;;;5.57;0.50;;;10.10;99.90;;;;;;4963819;28;20062;-77
2023/11/06 08:38:11;;;;;;;3.30;0.00;;;10.10;99.90;;;;;;4963691;28;20077;-77
2023/11/06 08:40:37;;;;;;;3.63;0.00;;;10.20;99.90;;;;;;4980939;28;20026;-77
2023/11/06 08:43:04;;;;;;;2.25;0.52;;;10.20;99.90;;;;;;4980930;28;20478;-76
2023/11/06 08:45:29;;;;;;;5.25;0.22;;;10.20;99.90;;;;;;4962266;28;20510;-77
2023/11/06 08:47:55;;;;;;;3.28;0.50;;;10.30;99.90;;;;;;4979140;28;20038;-76
2023/11/06 08:50:21;;;;;;;10.85;0.80;;;10.30;99.90;;;;;;4979856;28;20030;-77
2023/11/06 08:52:47;;;;;;;2.08;0.00;;;10.50;99.90;;;;;;4980466;28;20029;-77
2023/11/06 08:55:13;;;;;;;4.07;0.25;;;10.40;99.90;;;;;;4980148;28;20023;-77
2023/11/06 08:57:39;;;;;;;9.52;0.45;;;10.50;99.90;;;;;;4980740;28;20103;-77
2023/11/06 09:00:08;;;;;;;3.58;0.25;;;10.50;99.90;;;;;;4964006;28;20054;-77
2023/11/06 09:02:34;;;;;;;8.43;0.82;;;10.50;99.90;;;;;;4980739;28;20422;-77
2023/11/06 09:05:00;;;;;;;12.43;0.77;;;10.50;99.90;;;;;;4979420;28;20034;-77
2023/11/06 09:07:27;;;;;;;14.15;1.23;;;10.60;99.90;;;;;;4980550;28;20031;-77
2023/11/06 09:09:52;;;;;;;4.85;0.38;;;11.00;99.90;;;;;;4981393;28;20023;-78
2023/11/06 09:12:18;;;;;;;3.45;0.10;;;10.60;99.90;;;;;;4980691;28;20034;-78
2023/11/06 09:14:44;;;;;;;5.20;0.80;;;11.10;99.90;;;;;;4980886;28;20030;-77
2023/11/06 09:17:09;;;;;;;7.70;0.45;;;10.60;99.90;;;;;;4980864;28;20027;-78
2023/11/06 09:19:36;;;;;;;7.03;0.65;;;10.60;99.90;;;;;;4963836;28;20050;-77
2023/11/06 09:22:05;;;;;;;5.70;0.63;;;10.70;99.90;;;;;;4963256;28;20050;-77
2023/11/06 09:24:30;;;;;;;11.90;0.70;;;10.60;99.90;;;;;;4963088;28;20089;-77
2023/11/06 09:26:56;;;;;;;5.05;1.00;;;10.70;99.90;;;;;;4963206;28;20019;-75
2023/11/06 09:29:23;;;;;;;5.68;1.15;;;10.70;99.90;;;;;;4980697;28;20041;-75
2023/11/06 09:31:48;;;;;;;9.88;1.25;;;10.80;99.90;;;;;;4980776;28;20073;-75
2023/11/06 09:34:14;;;;;;;4.85;0.30;;;10.80;99.90;;;;;;4980667;28;20426;-75
2023/11/06 09:36:40;;;;;;;5.13;0.20;;;10.80;99.90;;;;;;4979293;28;20031;-75
2023/11/06 09:39:09;;;;;;;6.07;0.85;;;10.90;99.90;;;;;;4963126;28;20390;-75
2023/11/06 09:41:35;;;;;;;11.48;0.85;;;10.90;99.90;;;;;;4977815;28;20023;-75
2023/11/06 09:44:01;;;;;;;5.60;0.57;;;10.90;99.90;;;;;;4960292;28;20076;-75
2023/11/06 09:46:28;;;;;;;7.75;0.52;;;10.90;99.90;;;;;;4977291;28;20534;-75
2023/11/06 09:48:57;;;;;;;5.65;0.43;;;10.90;99.90;;;;;;4977306;28;20101;-74
2023/11/06 09:51:30;;;;;;;7.32;0.10;;;10.90;99.90;;;;;;4977336;28;20038;-74
2023/11/06 09:53:58;;;;;;;3.08;0.13;;;11.00;99.90;;;;;;4959855;28;20027;-75
2023/11/06 09:56:24;;;;;;;2.25;0.00;;;11.20;99.90;;;;;;4977193;28;20092;-75
2023/11/06 09:58:50;;;;;;;3.50;0.10;;;11.20;99.90;;;;;;4977034;28;20482;-75
2023/11/06 10:01:15;;;;;;;4.60;0.43;;;11.40;99.90;;;;;;4977074;28;20038;-75
2023/11/06 10:03:41;;;;;;;5.88;0.38;;;11.50;99.90;;;;;;4977125;28;20458;-75
2023/11/06 10:06:07;;;;;;;5.78;0.05;;;11.60;99.90;;;;;;4977636;28;20374;-75
2023/11/06 10:08:35;;;;;;;8.45;0.30;;;11.60;99.90;;;;;;4976994;28;20073;-75
2023/11/06 10:11:05;;;;;;;5.43;0.20;;;11.50;99.90;;;;;;4976963;28;20541;-75
2023/11/06 10:13:31;;;;;;;5.15;0.10;;;11.40;99.90;;;;;;4975445;28;20027;-75
2023/11/06 10:16:23;;;;;;;3.45;0.43;;;11.40;99.90;;;;;;4976766;28;20033;-75
2023/11/06 10:18:50;;;;;;;4.18;0.20;;;11.50;99.90;;;;;;4959316;28;20046;-75
2023/11/06 10:21:29;;;;;;;4.00;0.10;;;11.50;99.90;;;;;;4959259;28;20038;-75
2023/11/06 10:24:02;;;;;;;1.73;0.08;;;11.60;99.90;;;;;;4959092;28;20034;-75
2023/11/06 10:26:31;;;;;;;3.75;0.40;;;11.80;99.90;;;;;;4959136;28;20031;-75
2023/11/06 10:29:17;;;;;;;1.88;0.08;;;11.80;99.90;;;;;;4976535;28;20014;-75
2023/11/06 10:31:44;;;;;;;3.95;0.30;;;11.70;99.90;;;;;;4975361;28;20054;-75
2023/11/06 10:34:27;;;;;;;9.32;0.05;;;11.70;99.90;;;;;;4976416;28;20022;-75
2023/11/06 10:37:27;;;;;;;1.02;0.10;;;11.60;99.90;;;;;;4976316;28;20022;-75
2023/11/06 10:39:56;;;;;;;9.02;0.90;;;11.60;99.90;;;;;;4955464;28;20062;-75
2023/11/06 10:42:23;;;;;;;4.35;0.32;;;11.50;99.90;;;;;;4976360;28;20065;-75
2023/11/06 10:44:56;;;;;;;5.95;0.45;;;11.40;99.90;;;;;;4958774;28;20022;-75
2023/11/06 10:47:27;;;;;;;5.65;0.85;;;11.40;99.90;;;;;;4976286;28;20474;-75
2023/11/06 10:50:01;;;;;;;1.85;0.00;;;11.30;99.90;;;;;;4976332;28;20023;-75
2023/11/06 10:52:30;;;;;;;5.70;0.00;;;11.30;99.90;;;;;;4958422;28;20031;-75
2023/11/06 10:54:58;;;;;;;11.63;0.63;;;11.30;99.90;;;;;;4976178;28;20478;-75
2023/11/06 10:57:25;;;;;;;1.10;0.00;;;11.40;99.90;;;;;;4976048;28;20023;-75
2023/11/06 10:59:53;;;;;;;2.72;0.10;;;11.50;99.90;;;;;;4959170;28;20073;-75
2023/11/06 11:02:35;;;;;;;3.92;0.05;;;;;;;;;;4978764;28;20026;-75
2023/11/06 11:05:01;;;;;;;5.05;0.47;;;11.60;99.90;;;;;;4959034;28;20034;-75
2023/11/06 11:07:30;;;;;;;3.33;0.28;;;11.60;99.90;;;;;;4976297;28;20023;-75
2023/11/06 11:09:57;;;;;;;5.33;0.70;;;11.60;99.90;;;;;;4958486;28;20077;-75
2023/11/06 11:12:23;;;;;;;0.52;0.00;;;12.00;99.90;;;;;;4975622;28;20274;-75
2023/11/06 11:14:49;;;;;;;4.15;0.10;;;11.70;99.90;;;;;;4976147;28;20037;-75
2023/11/06 11:17:15;;;;;;;5.47;0.20;;;11.80;99.90;;;;;;4958337;28;20387;-75
2023/11/06 11:19:42;;;;;;;4.28;0.05;;;11.90;99.90;;;;;;4976105;28;20077;-75
2023/11/06 11:22:12;;;;;;;5.75;0.17;;;12.20;99.90;;;;;;4958186;28;20434;-75
2023/11/06 11:24:44;;;;;;;0.90;0.00;;;12.30;99.90;;;;;;4975498;28;20026;-75
2023/11/06 11:27:18;;;;;;;2.10;0.00;;;12.40;99.90;;;;;;4975734;28;20034;-76
2023/11/06 11:29:52;;;;;;;5.65;0.08;;;12.50;99.90;;;;;;4975435;28;20018;-75
2023/11/06 11:32:28;;;;;;;2.42;0.03;;;12.50;99.90;;;;;;4975707;28;20062;-75
2023/11/06 11:34:56;;;;;;;3.50;0.10;;;12.40;99.90;;;;;;4975717;28;20106;-76
2023/11/06 11:37:30;;;;;;;6.70;0.08;;;12.30;99.90;;;;;;4975560;28;20026;-75
2023/11/06 11:39:59;;;;;;;5.10;0.20;;;12.20;99.90;;;;;;4975356;28;20037;-75
2023/11/06 11:42:25;;;;;;;4.07;0.20;;;12.20;99.90;;;;;;4975818;28;20069;-76
2023/11/06 11:45:20;;;;;;;4.28;0.15;;;12.20;99.90;;;;;;4975270;28;20056;-75
2023/11/06 11:47:46;;;;;;;3.45;0.10;;;12.20;99.90;;;;;;4975001;28;20106;-75
2023/11/06 11:50:27;;;;;;;3.20;0.10;;;12.10;99.90;;;;;;4957983;28;20371;-75
2023/11/06 11:52:57;;;;;;;6.05;0.10;;;12.00;99.90;;;;;;4975627;28;20109;-75
2023/11/06 11:55:38;;;;;;;2.63;0.00;;;12.00;99.90;;;;;;4975046;28;20030;-75
2023/11/06 11:58:11;;;;;;;5.25;0.28;;;12.00;99.90;;;;;;4975023;28;20027;-75
2023/11/06 12:00:44;;;;;;;3.83;0.28;;;11.90;99.90;;;;;;4975433;28;20069;-75
2023/11/06 12:03:16;;;;;;;2.28;0.05;;;11.80;99.90;;;;;;4957629;28;20030;-75
2023/11/06 12:05:43;;;;;;;2.88;0.10;;;11.70;99.90;;;;;;4974243;28;20503;-75
2023/11/06 12:08:19;;;;;;;2.05;0.00;;;11.60;99.90;;;;;;4958187;28;20023;-75
2023/11/06 12:10:47;;;;;;;4.03;0.08;;;11.60;99.90;;;;;;4975342;28;20018;-75
2023/11/06 12:13:22;;;;;;;1.33;0.10;;;11.60;99.90;;;;;;4957670;28;20031;-75
2023/11/06 12:15:49;;;;;;;15.23;0.10;;;11.50;99.90;;;;;;4973676;28;20018;-75
2023/11/06 12:18:16;;;;;;;5.30;0.85;;;11.50;99.90;;;;;;4974651;28;20387;-75
2023/11/06 12:20:44;;;;;;;3.97;0.60;;;11.50;99.90;;;;;;4974925;28;20402;-76
2023/11/06 12:23:10;;;;;;;6.10;0.30;;;12.10;99.90;;;;;;4957369;28;20105;-75
2023/11/06 12:25:38;;;;;;;2.00;0.00;;;11.40;99.90;;;;;;4974642;28;20450;-75
2023/11/06 12:28:08;;;;;;;3.92;0.00;;;11.60;99.90;;;;;;4974615;28;20066;-75
2023/11/06 12:30:36;;;;;;;2.42;0.38;;;11.60;99.90;;;;;;4974720;28;20055;-75
2023/11/06 12:33:17;;;;;;;4.93;0.50;;;11.60;99.90;;;;;;4957332;28;20457;-75
2023/11/06 12:35:44;;;;;;;3.78;0.00;;;11.60;99.90;;;;;;4975176;28;20054;-75
2023/11/06 12:38:10;;;;;;;5.22;0.15;;;11.70;99.90;;;;;;4973402;28;20105;-75
2023/11/06 12:40:41;;;;;;;4.05;0.00;;;11.70;99.90;;;;;;4957207;28;20102;-75
2023/11/06 12:43:15;;;;;;;4.57;0.30;;;11.80;99.90;;;;;;4974612;28;20419;-75
2023/11/06 12:45:42;;;;;;;3.90;0.00;;;11.80;99.90;;;;;;4957407;28;20439;-74
2023/11/06 12:48:28;;;;;;;7.00;0.10;;;11.80;99.90;;;;;;4974424;28;20451;-74
2023/11/06 12:50:58;;;;;;;4.80;0.30;;;11.80;99.90;;;;;;4975009;28;20019;-75
2023/11/06 12:53:24;;;;;;;2.40;0.32;;;11.80;99.90;;;;;;4973159;28;20038;-76
2023/11/06 12:55:50;;;;;;;3.00;0.00;;;11.80;99.90;;;;;;4974771;28;20031;-75